sensor_id;sensor_type;location;lat;lon;timestamp;P1;durP1;ratioP1;P2;durP2;ratioP2
45476;SDS011;31958;51.756;-2.556;2023-03-03T00:00:40;5.13;;;1.50;;
45476;SDS011;31958;51.756;-2.556;2023-03-03T00:03:06;5.50;;;2.47;;
45476;SDS011;31958;51.756;-2.556;2023-03-03T00:05:33;3.83;;;2.00;;
45476;SDS011;31958;51.756;-2.556;2023-03-03T00:07:59;4.15;;;1.77;;
45476;SDS011;31958;51.756;-2.556;2023-03-03T00:10:25;3.20;;;1.48;;
45476;SDS011;31958;51.756;-2.556;2023-03-03T00:12:51;3.40;;;1.33;;
45476;SDS011;31958;51.756;-2.556;2023-03-03T00:15:17;7.35;;;1.73;;
45476;SDS011;31958;51.756;-2.556;2023-03-03T00:17:47;3.38;;;1.50;;
45476;SDS011;31958;51.756;-2.556;2023-03-03T00:22:53;5.07;;;1.63;;
45476;SDS011;31958;51.756;-2.556;2023-03-03T00:27:55;1.92;;;1.20;;
45476;SDS011;31958;51.756;-2.556;2023-03-03T00:30:24;3.53;;;1.40;;
45476;SDS011;31958;51.756;-2.556;2023-03-03T00:32:51;4.22;;;1.70;;
45476;SDS011;31958;51.756;-2.556;2023-03-03T00:37:54;2.85;;;1.60;;
45476;SDS011;31958;51.756;-2.556;2023-03-03T00:40:25;5.25;;;1.70;;
45476;SDS011;31958;51.756;-2.556;2023-03-03T00:42:53;3.67;;;1.40;;
45476;SDS011;31958;51.756;-2.556;2023-03-03T00:48:26;4.07;;;1.67;;
45476;SDS011;31958;51.756;-2.556;2023-03-03T00:50:56;5.25;;;1.75;;
45476;SDS011;31958;51.756;-2.556;2023-03-03T00:53:23;3.85;;;1.50;;
45476;SDS011;31958;51.756;-2.556;2023-03-03T00:55:51;3.17;;;1.73;;
45476;SDS011;31958;51.756;-2.556;2023-03-03T00:58:17;4.30;;;1.50;;
45476;SDS011;31958;51.756;-2.556;2023-03-03T01:00:45;2.65;;;1.45;;
45476;SDS011;31958;51.756;-2.556;2023-03-03T01:03:13;4.10;;;1.70;;
45476;SDS011;31958;51.756;-2.556;2023-03-03T01:05:40;2.97;;;1.45;;
45476;SDS011;31958;51.756;-2.556;2023-03-03T01:08:06;3.45;;;1.58;;
45476;SDS011;31958;51.756;-2.556;2023-03-03T01:10:33;4.15;;;1.40;;
45476;SDS011;31958;51.756;-2.556;2023-03-03T01:13:01;3.75;;;1.60;;
45476;SDS011;31958;51.756;-2.556;2023-03-03T01:15:27;5.15;;;1.50;;
45476;SDS011;31958;51.756;-2.556;2023-03-03T01:17:53;2.75;;;1.70;;
45476;SDS011;31958;51.756;-2.556;2023-03-03T01:20:19;2.72;;;1.52;;
45476;SDS011;31958;51.756;-2.556;2023-03-03T01:22:45;5.22;;;1.70;;
45476;SDS011;31958;51.756;-2.556;2023-03-03T01:25:10;6.28;;;1.85;;
45476;SDS011;31958;51.756;-2.556;2023-03-03T01:27:35;5.80;;;1.63;;
45476;SDS011;31958;51.756;-2.556;2023-03-03T01:30:02;3.00;;;1.70;;
45476;SDS011;31958;51.756;-2.556;2023-03-03T01:32:29;5.88;;;2.03;;
45476;SDS011;31958;51.756;-2.556;2023-03-03T01:34:54;4.28;;;1.80;;
45476;SDS011;31958;51.756;-2.556;2023-03-03T01:37:20;3.00;;;1.70;;
45476;SDS011;31958;51.756;-2.556;2023-03-03T01:39:52;2.58;;;1.48;;
45476;SDS011;31958;51.756;-2.556;2023-03-03T01:42:18;4.30;;;1.40;;
45476;SDS011;31958;51.756;-2.556;2023-03-03T01:44:44;4.28;;;1.65;;
45476;SDS011;31958;51.756;-2.556;2023-03-03T01:47:12;6.90;;;2.08;;
45476;SDS011;31958;51.756;-2.556;2023-03-03T01:49:49;9.40;;;1.73;;
45476;SDS011;31958;51.756;-2.556;2023-03-03T01:55:00;5.63;;;1.60;;
45476;SDS011;31958;51.756;-2.556;2023-03-03T01:57:32;8.93;;;1.90;;
45476;SDS011;31958;51.756;-2.556;2023-03-03T02:00:01;6.28;;;1.60;;
45476;SDS011;31958;51.756;-2.556;2023-03-03T02:02:28;8.40;;;1.70;;
45476;SDS011;31958;51.756;-2.556;2023-03-03T02:04:54;7.05;;;1.70;;
45476;SDS011;31958;51.756;-2.556;2023-03-03T02:07:20;4.55;;;1.60;;
45476;SDS011;31958;51.756;-2.556;2023-03-03T02:12:33;3.20;;;1.42;;
45476;SDS011;31958;51.756;-2.556;2023-03-03T02:15:00;4.93;;;1.92;;
45476;SDS011;31958;51.756;-2.556;2023-03-03T02:17:26;3.75;;;1.45;;
45476;SDS011;31958;51.756;-2.556;2023-03-03T02:22:57;2.13;;;0.98;;
45476;SDS011;31958;51.756;-2.556;2023-03-03T02:25:35;6.47;;;1.38;;
45476;SDS011;31958;51.756;-2.556;2023-03-03T02:28:07;2.47;;;1.58;;
45476;SDS011;31958;51.756;-2.556;2023-03-03T02:30:35;3.55;;;1.67;;
45476;SDS011;31958;51.756;-2.556;2023-03-03T02:33:02;6.35;;;2.05;;
45476;SDS011;31958;51.756;-2.556;2023-03-03T02:35:29;3.42;;;1.75;;
45476;SDS011;31958;51.756;-2.556;2023-03-03T02:38:14;3.08;;;1.02;;
45476;SDS011;31958;51.756;-2.556;2023-03-03T02:43:54;5.85;;;1.83;;
45476;SDS011;31958;51.756;-2.556;2023-03-03T02:46:23;2.53;;;1.38;;
45476;SDS011;31958;51.756;-2.556;2023-03-03T02:48:49;5.60;;;1.45;;
45476;SDS011;31958;51.756;-2.556;2023-03-03T02:51:15;8.13;;;1.77;;
45476;SDS011;31958;51.756;-2.556;2023-03-03T02:53:40;2.35;;;1.42;;
45476;SDS011;31958;51.756;-2.556;2023-03-03T02:56:05;2.60;;;1.63;;
45476;SDS011;31958;51.756;-2.556;2023-03-03T02:58:33;4.30;;;1.45;;
45476;SDS011;31958;51.756;-2.556;2023-03-03T03:00:59;3.60;;;1.50;;
45476;SDS011;31958;51.756;-2.556;2023-03-03T03:03:25;5.05;;;1.70;;
45476;SDS011;31958;51.756;-2.556;2023-03-03T03:05:51;3.88;;;1.17;;
45476;SDS011;31958;51.756;-2.556;2023-03-03T03:08:16;2.47;;;1.67;;
45476;SDS011;31958;51.756;-2.556;2023-03-03T03:10:41;5.63;;;1.70;;
45476;SDS011;31958;51.756;-2.556;2023-03-03T03:13:07;2.75;;;1.27;;
45476;SDS011;31958;51.756;-2.556;2023-03-03T03:15:34;3.42;;;1.65;;
45476;SDS011;31958;51.756;-2.556;2023-03-03T03:18:00;4.88;;;1.80;;
45476;SDS011;31958;51.756;-2.556;2023-03-03T03:20:25;5.53;;;1.70;;
45476;SDS011;31958;51.756;-2.556;2023-03-03T03:22:51;4.13;;;1.60;;
45476;SDS011;31958;51.756;-2.556;2023-03-03T03:25:16;5.57;;;1.70;;
45476;SDS011;31958;51.756;-2.556;2023-03-03T03:27:42;3.13;;;1.50;;
45476;SDS011;31958;51.756;-2.556;2023-03-03T03:30:07;5.63;;;1.38;;
45476;SDS011;31958;51.756;-2.556;2023-03-03T03:32:33;2.45;;;1.40;;
45476;SDS011;31958;51.756;-2.556;2023-03-03T03:34:58;2.20;;;1.38;;
45476;SDS011;31958;51.756;-2.556;2023-03-03T03:37:24;7.13;;;2.00;;
45476;SDS011;31958;51.756;-2.556;2023-03-03T03:39:49;6.38;;;1.70;;
45476;SDS011;31958;51.756;-2.556;2023-03-03T03:42:15;5.20;;;1.45;;
45476;SDS011;31958;51.756;-2.556;2023-03-03T03:44:40;4.85;;;1.73;;
45476;SDS011;31958;51.756;-2.556;2023-03-03T03:47:06;2.30;;;1.30;;
45476;SDS011;31958;51.756;-2.556;2023-03-03T03:49:31;3.40;;;1.50;;
45476;SDS011;31958;51.756;-2.556;2023-03-03T03:51:57;8.48;;;1.83;;
45476;SDS011;31958;51.756;-2.556;2023-03-03T03:54:22;2.20;;;1.33;;
45476;SDS011;31958;51.756;-2.556;2023-03-03T03:56:48;5.07;;;1.83;;
45476;SDS011;31958;51.756;-2.556;2023-03-03T03:59:13;2.60;;;1.40;;
45476;SDS011;31958;51.756;-2.556;2023-03-03T04:01:38;4.57;;;1.77;;
45476;SDS011;31958;51.756;-2.556;2023-03-03T04:04:04;3.55;;;1.60;;
45476;SDS011;31958;51.756;-2.556;2023-03-03T04:06:30;5.60;;;1.67;;
45476;SDS011;31958;51.756;-2.556;2023-03-03T04:08:55;2.47;;;1.52;;
45476;SDS011;31958;51.756;-2.556;2023-03-03T04:11:21;3.47;;;1.73;;
45476;SDS011;31958;51.756;-2.556;2023-03-03T04:13:46;4.72;;;1.83;;
45476;SDS011;31958;51.756;-2.556;2023-03-03T04:16:12;5.07;;;1.65;;
45476;SDS011;31958;51.756;-2.556;2023-03-03T04:18:37;4.95;;;1.90;;
45476;SDS011;31958;51.756;-2.556;2023-03-03T04:21:03;2.88;;;1.50;;
45476;SDS011;31958;51.756;-2.556;2023-03-03T04:23:29;3.63;;;1.60;;
45476;SDS011;31958;51.756;-2.556;2023-03-03T04:25:54;3.28;;;1.95;;
45476;SDS011;31958;51.756;-2.556;2023-03-03T04:28:19;3.47;;;1.55;;
45476;SDS011;31958;51.756;-2.556;2023-03-03T04:30:46;2.60;;;1.50;;
45476;SDS011;31958;51.756;-2.556;2023-03-03T04:33:11;1.98;;;1.40;;
45476;SDS011;31958;51.756;-2.556;2023-03-03T04:35:37;6.63;;;1.77;;
45476;SDS011;31958;51.756;-2.556;2023-03-03T04:38:02;6.38;;;1.92;;
45476;SDS011;31958;51.756;-2.556;2023-03-03T04:40:29;2.70;;;1.70;;
45476;SDS011;31958;51.756;-2.556;2023-03-03T04:42:54;5.72;;;2.10;;
45476;SDS011;31958;51.756;-2.556;2023-03-03T04:45:20;4.63;;;1.98;;
45476;SDS011;31958;51.756;-2.556;2023-03-03T04:47:45;4.35;;;1.75;;
45476;SDS011;31958;51.756;-2.556;2023-03-03T04:50:11;4.85;;;2.20;;
45476;SDS011;31958;51.756;-2.556;2023-03-03T04:52:36;5.15;;;1.80;;
45476;SDS011;31958;51.756;-2.556;2023-03-03T04:55:02;2.40;;;1.65;;
45476;SDS011;31958;51.756;-2.556;2023-03-03T04:57:28;4.85;;;2.08;;
45476;SDS011;31958;51.756;-2.556;2023-03-03T04:59:53;3.17;;;1.90;;
45476;SDS011;31958;51.756;-2.556;2023-03-03T05:02:19;3.13;;;1.35;;
45476;SDS011;31958;51.756;-2.556;2023-03-03T05:04:44;7.55;;;2.03;;
45476;SDS011;31958;51.756;-2.556;2023-03-03T05:07:10;2.95;;;1.75;;
45476;SDS011;31958;51.756;-2.556;2023-03-03T05:09:35;5.13;;;1.90;;
45476;SDS011;31958;51.756;-2.556;2023-03-03T05:12:01;3.25;;;1.70;;
45476;SDS011;31958;51.756;-2.556;2023-03-03T05:14:27;4.55;;;1.52;;
45476;SDS011;31958;51.756;-2.556;2023-03-03T05:16:52;6.70;;;2.10;;
45476;SDS011;31958;51.756;-2.556;2023-03-03T05:19:18;4.30;;;2.22;;
45476;SDS011;31958;51.756;-2.556;2023-03-03T05:21:44;2.17;;;1.58;;
45476;SDS011;31958;51.756;-2.556;2023-03-03T05:24:10;1.50;;;1.17;;
45476;SDS011;31958;51.756;-2.556;2023-03-03T05:26:36;4.78;;;2.47;;
45476;SDS011;31958;51.756;-2.556;2023-03-03T05:29:02;4.28;;;2.10;;
45476;SDS011;31958;51.756;-2.556;2023-03-03T05:31:27;2.20;;;1.45;;
45476;SDS011;31958;51.756;-2.556;2023-03-03T05:33:53;4.47;;;2.55;;
45476;SDS011;31958;51.756;-2.556;2023-03-03T05:36:19;4.30;;;2.15;;
45476;SDS011;31958;51.756;-2.556;2023-03-03T05:38:44;6.78;;;1.95;;
45476;SDS011;31958;51.756;-2.556;2023-03-03T05:41:10;5.00;;;2.38;;
45476;SDS011;31958;51.756;-2.556;2023-03-03T05:43:35;5.47;;;2.20;;
45476;SDS011;31958;51.756;-2.556;2023-03-03T05:46:00;6.22;;;1.80;;
45476;SDS011;31958;51.756;-2.556;2023-03-03T05:48:26;6.30;;;1.50;;
45476;SDS011;31958;51.756;-2.556;2023-03-03T05:50:52;1.25;;;0.85;;
45476;SDS011;31958;51.756;-2.556;2023-03-03T05:53:17;1.70;;;1.13;;
45476;SDS011;31958;51.756;-2.556;2023-03-03T05:55:43;3.20;;;1.83;;
45476;SDS011;31958;51.756;-2.556;2023-03-03T05:58:08;5.70;;;2.25;;
45476;SDS011;31958;51.756;-2.556;2023-03-03T06:00:34;7.13;;;2.63;;
45476;SDS011;31958;51.756;-2.556;2023-03-03T06:02:59;3.70;;;1.55;;
45476;SDS011;31958;51.756;-2.556;2023-03-03T06:05:25;4.55;;;1.95;;
45476;SDS011;31958;51.756;-2.556;2023-03-03T06:07:50;6.85;;;1.88;;
45476;SDS011;31958;51.756;-2.556;2023-03-03T06:10:16;3.72;;;1.67;;
45476;SDS011;31958;51.756;-2.556;2023-03-03T06:12:41;7.68;;;2.13;;
45476;SDS011;31958;51.756;-2.556;2023-03-03T06:15:07;3.90;;;2.20;;
45476;SDS011;31958;51.756;-2.556;2023-03-03T06:17:33;5.07;;;2.20;;
45476;SDS011;31958;51.756;-2.556;2023-03-03T06:19:59;6.15;;;2.38;;
45476;SDS011;31958;51.756;-2.556;2023-03-03T06:22:24;2.72;;;1.65;;
45476;SDS011;31958;51.756;-2.556;2023-03-03T06:24:49;2.83;;;1.98;;
45476;SDS011;31958;51.756;-2.556;2023-03-03T06:27:16;3.72;;;2.22;;
45476;SDS011;31958;51.756;-2.556;2023-03-03T06:29:42;3.03;;;2.03;;
45476;SDS011;31958;51.756;-2.556;2023-03-03T06:32:08;4.28;;;2.30;;
45476;SDS011;31958;51.756;-2.556;2023-03-03T06:34:33;5.97;;;2.25;;
45476;SDS011;31958;51.756;-2.556;2023-03-03T06:36:58;3.40;;;2.50;;
45476;SDS011;31958;51.756;-2.556;2023-03-03T06:39:24;3.92;;;2.10;;
45476;SDS011;31958;51.756;-2.556;2023-03-03T06:41:49;3.30;;;2.10;;
45476;SDS011;31958;51.756;-2.556;2023-03-03T06:44:15;5.55;;;2.25;;
45476;SDS011;31958;51.756;-2.556;2023-03-03T06:46:41;3.83;;;2.40;;
45476;SDS011;31958;51.756;-2.556;2023-03-03T06:49:06;7.93;;;2.70;;
45476;SDS011;31958;51.756;-2.556;2023-03-03T06:51:33;4.75;;;2.60;;
45476;SDS011;31958;51.756;-2.556;2023-03-03T06:54:10;3.42;;;2.40;;
45476;SDS011;31958;51.756;-2.556;2023-03-03T06:56:57;5.40;;;2.53;;
45476;SDS011;31958;51.756;-2.556;2023-03-03T06:59:24;4.97;;;2.70;;
45476;SDS011;31958;51.756;-2.556;2023-03-03T07:01:51;4.10;;;2.25;;
45476;SDS011;31958;51.756;-2.556;2023-03-03T07:06:43;3.45;;;2.15;;
45476;SDS011;31958;51.756;-2.556;2023-03-03T07:09:14;4.75;;;2.50;;
45476;SDS011;31958;51.756;-2.556;2023-03-03T07:11:45;5.55;;;2.55;;
45476;SDS011;31958;51.756;-2.556;2023-03-03T07:14:15;3.90;;;2.17;;
45476;SDS011;31958;51.756;-2.556;2023-03-03T07:16:41;5.85;;;2.53;;
45476;SDS011;31958;51.756;-2.556;2023-03-03T07:19:13;6.68;;;2.38;;
45476;SDS011;31958;51.756;-2.556;2023-03-03T07:21:54;6.25;;;2.35;;
45476;SDS011;31958;51.756;-2.556;2023-03-03T07:24:27;5.70;;;1.95;;
45476;SDS011;31958;51.756;-2.556;2023-03-03T07:29:26;2.90;;;2.00;;
45476;SDS011;31958;51.756;-2.556;2023-03-03T07:31:53;3.63;;;1.30;;
45476;SDS011;31958;51.756;-2.556;2023-03-03T07:34:21;5.00;;;2.50;;
45476;SDS011;31958;51.756;-2.556;2023-03-03T07:36:49;5.22;;;2.50;;
45476;SDS011;31958;51.756;-2.556;2023-03-03T07:41:47;4.13;;;1.70;;
45476;SDS011;31958;51.756;-2.556;2023-03-03T07:44:24;5.43;;;1.90;;
45476;SDS011;31958;51.756;-2.556;2023-03-03T07:46:55;2.20;;;1.35;;
45476;SDS011;31958;51.756;-2.556;2023-03-03T07:51:50;3.30;;;1.98;;
45476;SDS011;31958;51.756;-2.556;2023-03-03T07:54:32;3.58;;;1.77;;
45476;SDS011;31958;51.756;-2.556;2023-03-03T07:57:06;4.82;;;2.60;;
45476;SDS011;31958;51.756;-2.556;2023-03-03T07:59:45;3.08;;;2.15;;
45476;SDS011;31958;51.756;-2.556;2023-03-03T08:05:39;5.05;;;1.92;;
45476;SDS011;31958;51.756;-2.556;2023-03-03T08:10:57;4.18;;;2.25;;
45476;SDS011;31958;51.756;-2.556;2023-03-03T08:13:44;4.30;;;2.20;;
45476;SDS011;31958;51.756;-2.556;2023-03-03T08:18:39;3.15;;;1.67;;
45476;SDS011;31958;51.756;-2.556;2023-03-03T08:23:39;6.05;;;2.83;;
45476;SDS011;31958;51.756;-2.556;2023-03-03T08:26:05;4.47;;;2.58;;
45476;SDS011;31958;51.756;-2.556;2023-03-03T08:28:31;6.95;;;2.40;;
45476;SDS011;31958;51.756;-2.556;2023-03-03T08:30:57;3.47;;;2.03;;
45476;SDS011;31958;51.756;-2.556;2023-03-03T08:33:22;2.97;;;1.55;;
45476;SDS011;31958;51.756;-2.556;2023-03-03T08:35:48;5.10;;;2.35;;
45476;SDS011;31958;51.756;-2.556;2023-03-03T08:38:14;4.03;;;2.25;;
45476;SDS011;31958;51.756;-2.556;2023-03-03T08:40:41;3.97;;;2.30;;
45476;SDS011;31958;51.756;-2.556;2023-03-03T08:43:07;3.92;;;2.13;;
45476;SDS011;31958;51.756;-2.556;2023-03-03T08:45:33;3.17;;;2.10;;
45476;SDS011;31958;51.756;-2.556;2023-03-03T08:47:59;4.50;;;2.65;;
45476;SDS011;31958;51.756;-2.556;2023-03-03T08:50:26;4.40;;;2.33;;
45476;SDS011;31958;51.756;-2.556;2023-03-03T08:52:52;6.72;;;2.42;;
45476;SDS011;31958;51.756;-2.556;2023-03-03T08:55:17;4.97;;;2.03;;
45476;SDS011;31958;51.756;-2.556;2023-03-03T08:57:43;3.95;;;2.63;;
45476;SDS011;31958;51.756;-2.556;2023-03-03T09:00:10;5.75;;;2.78;;
45476;SDS011;31958;51.756;-2.556;2023-03-03T09:02:37;4.63;;;1.98;;
45476;SDS011;31958;51.756;-2.556;2023-03-03T09:05:03;4.53;;;2.30;;
45476;SDS011;31958;51.756;-2.556;2023-03-03T09:07:29;4.10;;;2.58;;
45476;SDS011;31958;51.756;-2.556;2023-03-03T09:09:54;5.40;;;2.70;;
45476;SDS011;31958;51.756;-2.556;2023-03-03T09:12:28;5.80;;;2.80;;
45476;SDS011;31958;51.756;-2.556;2023-03-03T09:14:57;3.65;;;2.30;;
45476;SDS011;31958;51.756;-2.556;2023-03-03T09:17:31;7.53;;;2.72;;
45476;SDS011;31958;51.756;-2.556;2023-03-03T09:19:59;6.35;;;2.50;;
45476;SDS011;31958;51.756;-2.556;2023-03-03T09:22:27;3.63;;;2.20;;
45476;SDS011;31958;51.756;-2.556;2023-03-03T09:24:54;3.13;;;2.08;;
45476;SDS011;31958;51.756;-2.556;2023-03-03T09:27:29;3.72;;;2.28;;
45476;SDS011;31958;51.756;-2.556;2023-03-03T09:30:00;4.65;;;2.75;;
45476;SDS011;31958;51.756;-2.556;2023-03-03T09:32:44;6.20;;;2.90;;
45476;SDS011;31958;51.756;-2.556;2023-03-03T09:38:04;4.40;;;2.30;;
45476;SDS011;31958;51.756;-2.556;2023-03-03T09:43:51;6.25;;;2.53;;
45476;SDS011;31958;51.756;-2.556;2023-03-03T09:48:55;2.97;;;1.52;;
45476;SDS011;31958;51.756;-2.556;2023-03-03T10:08:08;3.72;;;1.83;;
45476;SDS011;31958;51.756;-2.556;2023-03-03T10:21:56;4.25;;;1.52;;
45476;SDS011;31958;51.756;-2.556;2023-03-03T10:24:42;1.73;;;1.23;;
45476;SDS011;31958;51.756;-2.556;2023-03-03T10:27:36;2.75;;;1.55;;
45476;SDS011;31958;51.756;-2.556;2023-03-03T10:30:20;5.28;;;1.70;;
45476;SDS011;31958;51.756;-2.556;2023-03-03T10:38:29;3.38;;;1.48;;
45476;SDS011;31958;51.756;-2.556;2023-03-03T10:41:05;3.42;;;1.75;;
45476;SDS011;31958;51.756;-2.556;2023-03-03T10:49:46;2.80;;;1.00;;
45476;SDS011;31958;51.756;-2.556;2023-03-03T11:14:20;3.58;;;1.10;;
45476;SDS011;31958;51.756;-2.556;2023-03-03T11:16:53;2.03;;;1.10;;
45476;SDS011;31958;51.756;-2.556;2023-03-03T11:31:01;3.28;;;0.90;;
45476;SDS011;31958;51.756;-2.556;2023-03-03T11:36:35;2.20;;;1.10;;
45476;SDS011;31958;51.756;-2.556;2023-03-03T11:41:49;1.77;;;0.90;;
45476;SDS011;31958;51.756;-2.556;2023-03-03T11:49:41;2.72;;;1.35;;
45476;SDS011;31958;51.756;-2.556;2023-03-03T11:55:18;2.35;;;1.48;;
45476;SDS011;31958;51.756;-2.556;2023-03-03T12:08:51;2.38;;;1.50;;
45476;SDS011;31958;51.756;-2.556;2023-03-03T12:17:22;5.47;;;2.25;;
45476;SDS011;31958;51.756;-2.556;2023-03-03T12:20:15;3.20;;;1.50;;
45476;SDS011;31958;51.756;-2.556;2023-03-03T12:25:40;7.68;;;2.85;;
45476;SDS011;31958;51.756;-2.556;2023-03-03T12:30:58;4.97;;;2.92;;
45476;SDS011;31958;51.756;-2.556;2023-03-03T12:44:56;10.52;;;4.53;;
45476;SDS011;31958;51.756;-2.556;2023-03-03T12:52:45;6.30;;;3.95;;
45476;SDS011;31958;51.756;-2.556;2023-03-03T13:09:38;6.28;;;3.85;;
45476;SDS011;31958;51.756;-2.556;2023-03-03T13:17:37;7.07;;;3.97;;
45476;SDS011;31958;51.756;-2.556;2023-03-03T13:20:11;8.52;;;4.65;;
45476;SDS011;31958;51.756;-2.556;2023-03-03T13:23:06;9.45;;;4.25;;
45476;SDS011;31958;51.756;-2.556;2023-03-03T13:25:39;8.98;;;4.90;;
45476;SDS011;31958;51.756;-2.556;2023-03-03T13:33:58;8.70;;;4.60;;
45476;SDS011;31958;51.756;-2.556;2023-03-03T13:36:29;7.50;;;4.35;;
45476;SDS011;31958;51.756;-2.556;2023-03-03T13:39:05;8.98;;;4.95;;
45476;SDS011;31958;51.756;-2.556;2023-03-03T13:44:16;9.65;;;5.00;;
45476;SDS011;31958;51.756;-2.556;2023-03-03T13:52:12;5.93;;;4.20;;
45476;SDS011;31958;51.756;-2.556;2023-03-03T14:02:46;9.23;;;5.18;;
45476;SDS011;31958;51.756;-2.556;2023-03-03T14:05:22;8.77;;;6.13;;
45476;SDS011;31958;51.756;-2.556;2023-03-03T14:07:53;7.35;;;5.25;;
45476;SDS011;31958;51.756;-2.556;2023-03-03T14:13:11;7.82;;;4.35;;
45476;SDS011;31958;51.756;-2.556;2023-03-03T14:15:47;8.68;;;4.85;;
45476;SDS011;31958;51.756;-2.556;2023-03-03T14:18:23;11.27;;;5.15;;
45476;SDS011;31958;51.756;-2.556;2023-03-03T14:20:58;9.93;;;5.70;;
45476;SDS011;31958;51.756;-2.556;2023-03-03T14:26:54;10.63;;;5.03;;
45476;SDS011;31958;51.756;-2.556;2023-03-03T14:31:46;11.20;;;5.82;;
45476;SDS011;31958;51.756;-2.556;2023-03-03T14:36:47;9.75;;;6.93;;
45476;SDS011;31958;51.756;-2.556;2023-03-03T14:39:33;12.15;;;6.50;;
45476;SDS011;31958;51.756;-2.556;2023-03-03T14:41:59;9.32;;;6.10;;
45476;SDS011;31958;51.756;-2.556;2023-03-03T14:49:36;9.93;;;6.10;;
45476;SDS011;31958;51.756;-2.556;2023-03-03T14:52:08;9.90;;;5.82;;
45476;SDS011;31958;51.756;-2.556;2023-03-03T14:54:39;12.07;;;5.95;;
45476;SDS011;31958;51.756;-2.556;2023-03-03T14:57:14;11.27;;;6.63;;
45476;SDS011;31958;51.756;-2.556;2023-03-03T14:59:58;8.73;;;5.00;;
45476;SDS011;31958;51.756;-2.556;2023-03-03T15:05:22;12.10;;;7.00;;
45476;SDS011;31958;51.756;-2.556;2023-03-03T15:07:56;12.00;;;5.03;;
45476;SDS011;31958;51.756;-2.556;2023-03-03T15:12:58;13.27;;;7.30;;
45476;SDS011;31958;51.756;-2.556;2023-03-03T15:15:34;9.32;;;5.75;;
45476;SDS011;31958;51.756;-2.556;2023-03-03T15:18:08;10.73;;;5.95;;
45476;SDS011;31958;51.756;-2.556;2023-03-03T15:36:49;8.35;;;5.28;;
45476;SDS011;31958;51.756;-2.556;2023-03-03T15:42:03;9.10;;;4.80;;
45476;SDS011;31958;51.756;-2.556;2023-03-03T15:44:43;7.97;;;4.85;;
45476;SDS011;31958;51.756;-2.556;2023-03-03T15:52:47;7.50;;;3.17;;
45476;SDS011;31958;51.756;-2.556;2023-03-03T16:06:33;8.27;;;4.15;;
45476;SDS011;31958;51.756;-2.556;2023-03-03T16:09:08;8.40;;;4.72;;
45476;SDS011;31958;51.756;-2.556;2023-03-03T16:11:46;6.95;;;4.22;;
45476;SDS011;31958;51.756;-2.556;2023-03-03T16:16:47;7.07;;;4.70;;
45476;SDS011;31958;51.756;-2.556;2023-03-03T16:19:21;9.80;;;4.90;;
45476;SDS011;31958;51.756;-2.556;2023-03-03T16:27:28;6.78;;;4.32;;
45476;SDS011;31958;51.756;-2.556;2023-03-03T16:32:45;8.88;;;5.05;;
45476;SDS011;31958;51.756;-2.556;2023-03-03T16:35:23;7.57;;;4.97;;
45476;SDS011;31958;51.756;-2.556;2023-03-03T16:40:19;7.22;;;4.97;;
45476;SDS011;31958;51.756;-2.556;2023-03-03T16:42:48;8.60;;;5.15;;
45476;SDS011;31958;51.756;-2.556;2023-03-03T16:45:22;9.10;;;5.57;;
45476;SDS011;31958;51.756;-2.556;2023-03-03T16:55:44;10.98;;;5.80;;
45476;SDS011;31958;51.756;-2.556;2023-03-03T16:58:18;8.80;;;5.35;;
45476;SDS011;31958;51.756;-2.556;2023-03-03T17:03:39;9.23;;;5.22;;
45476;SDS011;31958;51.756;-2.556;2023-03-03T17:06:22;13.45;;;3.70;;
45476;SDS011;31958;51.756;-2.556;2023-03-03T17:09:22;10.68;;;5.30;;
45476;SDS011;31958;51.756;-2.556;2023-03-03T17:15:04;9.88;;;5.25;;
45476;SDS011;31958;51.756;-2.556;2023-03-03T17:31:09;9.25;;;4.93;;
45476;SDS011;31958;51.756;-2.556;2023-03-03T17:36:31;11.10;;;5.28;;
45476;SDS011;31958;51.756;-2.556;2023-03-03T17:52:40;9.73;;;5.60;;
45476;SDS011;31958;51.756;-2.556;2023-03-03T18:22:47;9.10;;;4.72;;
45476;SDS011;31958;51.756;-2.556;2023-03-03T18:25:24;9.30;;;4.63;;
45476;SDS011;31958;51.756;-2.556;2023-03-03T18:29:03;7.60;;;4.40;;
45476;SDS011;31958;51.756;-2.556;2023-03-03T18:31:30;9.23;;;4.85;;
45476;SDS011;31958;51.756;-2.556;2023-03-03T18:39:38;11.55;;;4.88;;
45476;SDS011;31958;51.756;-2.556;2023-03-03T18:44:40;9.75;;;5.05;;
45476;SDS011;31958;51.756;-2.556;2023-03-03T18:47:06;9.68;;;4.50;;
45476;SDS011;31958;51.756;-2.556;2023-03-03T18:49:48;12.63;;;4.95;;
45476;SDS011;31958;51.756;-2.556;2023-03-03T18:52:29;9.98;;;4.53;;
45476;SDS011;31958;51.756;-2.556;2023-03-03T18:55:40;8.23;;;4.22;;
45476;SDS011;31958;51.756;-2.556;2023-03-03T18:57:41;9.73;;;4.65;;
45476;SDS011;31958;51.756;-2.556;2023-03-03T19:00:28;7.43;;;4.47;;
45476;SDS011;31958;51.756;-2.556;2023-03-03T19:02:56;8.68;;;4.18;;
45476;SDS011;31958;51.756;-2.556;2023-03-03T19:05:25;8.77;;;4.90;;
45476;SDS011;31958;51.756;-2.556;2023-03-03T19:08:02;8.32;;;4.72;;
45476;SDS011;31958;51.756;-2.556;2023-03-03T19:10:43;8.50;;;4.80;;
45476;SDS011;31958;51.756;-2.556;2023-03-03T19:15:59;8.43;;;4.57;;
45476;SDS011;31958;51.756;-2.556;2023-03-03T19:18:32;7.57;;;4.53;;
45476;SDS011;31958;51.756;-2.556;2023-03-03T19:21:32;12.30;;;4.55;;
45476;SDS011;31958;51.756;-2.556;2023-03-03T19:23:53;7.90;;;4.30;;
45476;SDS011;31958;51.756;-2.556;2023-03-03T19:31:45;8.40;;;4.90;;
45476;SDS011;31958;51.756;-2.556;2023-03-03T19:37:31;11.32;;;4.95;;
45476;SDS011;31958;51.756;-2.556;2023-03-03T19:43:55;9.38;;;5.03;;
45476;SDS011;31958;51.756;-2.556;2023-03-03T19:49:21;7.15;;;4.25;;
45476;SDS011;31958;51.756;-2.556;2023-03-03T20:00:31;10.77;;;5.63;;
45476;SDS011;31958;51.756;-2.556;2023-03-03T20:05:58;10.65;;;5.97;;
45476;SDS011;31958;51.756;-2.556;2023-03-03T20:08:50;10.43;;;5.70;;
45476;SDS011;31958;51.756;-2.556;2023-03-03T20:17:00;9.32;;;5.05;;
45476;SDS011;31958;51.756;-2.556;2023-03-03T20:22:42;9.32;;;5.60;;
45476;SDS011;31958;51.756;-2.556;2023-03-03T20:25:21;9.32;;;5.15;;
45476;SDS011;31958;51.756;-2.556;2023-03-03T20:36:08;7.72;;;4.95;;
45476;SDS011;31958;51.756;-2.556;2023-03-03T20:41:29;9.90;;;5.32;;
45476;SDS011;31958;51.756;-2.556;2023-03-03T20:49:51;11.02;;;5.78;;
45476;SDS011;31958;51.756;-2.556;2023-03-03T20:58:09;9.27;;;5.32;;
45476;SDS011;31958;51.756;-2.556;2023-03-03T21:00:42;9.27;;;5.40;;
45476;SDS011;31958;51.756;-2.556;2023-03-03T21:05:57;9.77;;;5.57;;
45476;SDS011;31958;51.756;-2.556;2023-03-03T21:11:08;12.85;;;4.78;;
45476;SDS011;31958;51.756;-2.556;2023-03-03T21:13:38;10.63;;;5.18;;
45476;SDS011;31958;51.756;-2.556;2023-03-03T21:16:16;8.77;;;5.35;;
45476;SDS011;31958;51.756;-2.556;2023-03-03T21:18:55;9.32;;;6.15;;
45476;SDS011;31958;51.756;-2.556;2023-03-03T21:21:25;11.20;;;5.70;;
45476;SDS011;31958;51.756;-2.556;2023-03-03T21:23:52;9.90;;;5.80;;
45476;SDS011;31958;51.756;-2.556;2023-03-03T21:29:07;9.68;;;5.28;;
45476;SDS011;31958;51.756;-2.556;2023-03-03T21:31:42;8.52;;;4.88;;
45476;SDS011;31958;51.756;-2.556;2023-03-03T21:36:44;15.35;;;5.53;;
45476;SDS011;31958;51.756;-2.556;2023-03-03T21:47:03;12.18;;;5.47;;
45476;SDS011;31958;51.756;-2.556;2023-03-03T21:49:29;10.40;;;5.50;;
45476;SDS011;31958;51.756;-2.556;2023-03-03T21:51:55;10.00;;;5.25;;
45476;SDS011;31958;51.756;-2.556;2023-03-03T21:54:21;9.85;;;5.18;;
45476;SDS011;31958;51.756;-2.556;2023-03-03T21:56:47;9.88;;;5.18;;
45476;SDS011;31958;51.756;-2.556;2023-03-03T21:59:14;10.70;;;5.68;;
45476;SDS011;31958;51.756;-2.556;2023-03-03T22:01:40;8.15;;;5.10;;
45476;SDS011;31958;51.756;-2.556;2023-03-03T22:04:05;8.52;;;5.22;;
45476;SDS011;31958;51.756;-2.556;2023-03-03T22:06:30;8.85;;;4.85;;
45476;SDS011;31958;51.756;-2.556;2023-03-03T22:08:56;11.73;;;5.85;;
45476;SDS011;31958;51.756;-2.556;2023-03-03T22:11:21;12.05;;;5.50;;
45476;SDS011;31958;51.756;-2.556;2023-03-03T22:13:47;8.60;;;5.32;;
45476;SDS011;31958;51.756;-2.556;2023-03-03T22:16:12;7.90;;;5.03;;
45476;SDS011;31958;51.756;-2.556;2023-03-03T22:18:38;8.25;;;4.95;;